createdAt,value
2017-09-20T00:00:29.095Z,98.75
2017-09-20T00:01:29.074Z,98.56
2017-09-20T00:02:29.054Z,98.85
2017-09-20T00:03:29.029Z,98.51
2017-09-20T00:04:29.011Z,98.85
2017-09-20T00:05:28.989Z,99.13
2017-09-20T00:06:28.956Z,98.65
2017-09-20T00:07:28.985Z,99.13
2017-09-20T00:08:28.918Z,99.13
2017-09-20T00:09:28.888Z,99.08
2017-09-20T00:10:28.869Z,99.08
2017-09-20T00:11:28.883Z,99.08
2017-09-20T00:12:28.824Z,98.99
2017-09-20T00:13:28.799Z,99.04
2017-09-20T00:14:28.472Z,98.94
2017-09-20T00:15:28.445Z,99.27
2017-09-20T00:16:28.731Z,98.79
2017-09-20T00:17:28.706Z,98.94
2017-09-20T00:18:28.685Z,98.85
2017-09-20T00:19:28.660Z,98.6
2017-09-20T00:20:28.637Z,98.99
2017-09-20T00:21:28.621Z,98.65
2017-09-20T00:22:28.594Z,98.7
2017-09-20T00:23:28.569Z,98.7
2017-09-20T00:24:28.550Z,98.7
2017-09-20T00:25:28.532Z,98.89
2017-09-20T00:26:28.501Z,98.79
2017-09-20T00:27:28.478Z,98.75
2017-09-20T00:28:28.457Z,98.75
2017-09-20T00:29:28.432Z,98.85
2017-09-20T00:30:28.412Z,98.79
2017-09-20T00:31:28.387Z,98.46
2017-09-20T00:32:28.367Z,98.85
2017-09-20T00:33:28.343Z,98.75
2017-09-20T00:34:28.324Z,99.04
2017-09-20T00:35:28.302Z,98.75
2017-09-20T00:36:28.271Z,98.85
2017-09-20T00:37:28.252Z,98.85
2017-09-20T00:38:28.232Z,98.85
2017-09-20T00:39:28.204Z,98.85
2017-09-20T00:40:28.180Z,99.04
2017-09-20T00:41:28.167Z,98.85
2017-09-20T00:42:28.134Z,98.56
2017-09-20T00:43:27.805Z,99.22
2017-09-20T00:44:28.087Z,99.04
2017-09-20T00:45:28.070Z,99.04
2017-09-20T00:46:28.039Z,99.04
2017-09-20T00:47:28.024Z,98.75
2017-09-20T00:48:28.003Z,99.13
2017-09-20T00:49:27.976Z,98.65
2017-09-20T00:50:27.952Z,98.85
2017-09-20T00:51:27.927Z,99.22
2017-09-20T00:52:27.906Z,98.79
2017-09-20T00:53:27.884Z,98.85
2017-09-20T00:54:27.861Z,99.04
2017-09-20T00:55:27.851Z,98.65
2017-09-20T00:56:27.562Z,99.04
2017-09-20T00:57:27.793Z,98.99
2017-09-20T00:58:27.768Z,98.85
2017-09-20T00:59:27.745Z,99.04
2017-09-20T01:00:27.724Z,99.22
2017-09-20T01:01:27.701Z,98.94
2017-09-20T01:02:27.677Z,99.13
2017-09-20T01:03:27.654Z,99.13
2017-09-20T01:04:27.637Z,98.89
2017-09-20T01:05:27.609Z,98.94
2017-09-20T01:06:27.587Z,98.99
2017-09-20T01:07:27.566Z,98.89
2017-09-20T01:08:27.236Z,98.89
2017-09-20T01:09:27.516Z,98.89
2017-09-20T01:10:27.498Z,98.85
2017-09-20T01:11:27.473Z,98.89
2017-09-20T01:12:27.453Z,98.79
2017-09-20T01:13:27.428Z,98.94
2017-09-20T01:14:27.403Z,98.89
2017-09-20T01:15:27.388Z,99.27
2017-09-20T01:16:27.364Z,98.89
2017-09-20T01:17:27.337Z,99.08
2017-09-20T01:18:27.310Z,99.7
2017-09-20T01:19:27.290Z,98.89
2017-09-20T01:20:27.278Z,98.99
2017-09-20T01:21:27.244Z,99.18
2017-09-20T01:22:27.233Z,98.65
2017-09-20T01:23:27.200Z,99.46
2017-09-20T01:24:27.173Z,98.99
2017-09-20T01:25:27.156Z,99.27
2017-09-20T01:26:27.126Z,99.65
2017-09-20T01:27:27.109Z,99.08
2017-09-20T01:28:27.082Z,99.37
2017-09-20T01:29:27.066Z,98.89
2017-09-20T01:30:27.038Z,99.55
2017-09-20T01:31:27.025Z,99.55
2017-09-20T01:32:27.033Z,99.08
2017-09-20T01:33:26.660Z,99.18
2017-09-20T01:34:26.942Z,99.46
2017-09-20T01:35:26.927Z,99.37
2017-09-20T01:36:26.932Z,98.99
2017-09-20T01:37:26.883Z,98.99
2017-09-20T01:38:26.855Z,98.99
2017-09-20T01:39:26.830Z,98.89
2017-09-20T01:40:26.811Z,99.18
2017-09-20T01:41:26.784Z,99.18
2017-09-20T01:42:26.768Z,98.99
2017-09-20T01:43:26.742Z,98.99
2017-09-20T01:44:26.720Z,98.89
2017-09-20T01:45:26.693Z,99.55
2017-09-20T01:46:26.669Z,98.99
2017-09-20T01:47:26.646Z,98.89
2017-09-20T01:48:26.625Z,98.79
2017-09-20T01:49:26.608Z,98.89
2017-09-20T01:50:26.579Z,98.99
2017-09-20T01:51:26.558Z,99.08
2017-09-20T01:52:26.537Z,99.46
2017-09-20T01:53:26.513Z,99.55
2017-09-20T01:54:26.490Z,98.89
2017-09-20T01:55:26.467Z,99.08
2017-09-20T01:56:26.442Z,98.89
2017-09-20T01:57:26.419Z,98.89
2017-09-20T01:58:26.399Z,99.08
2017-09-20T01:59:26.375Z,99.18
2017-09-20T02:00:26.348Z,98.99
2017-09-20T02:01:26.376Z,98.99
2017-09-20T02:02:26.309Z,98.99
2017-09-20T02:03:26.332Z,99.08
2017-09-20T02:04:26.258Z,99.65
2017-09-20T02:05:25.928Z,99.08
2017-09-20T02:06:26.210Z,99.18
2017-09-20T02:07:26.195Z,99.37
2017-09-20T02:08:26.165Z,99.37
2017-09-20T02:09:26.148Z,99.55
2017-09-20T02:10:26.125Z,99.46
2017-09-20T02:11:26.102Z,99.37
2017-09-20T02:12:26.130Z,99.46
2017-09-20T02:13:26.051Z,99.55
2017-09-20T02:14:26.028Z,99.18
2017-09-20T02:15:25.699Z,99.37
2017-09-20T02:16:25.988Z,99.37
2017-09-20T02:17:25.966Z,99.46
2017-09-20T02:18:25.943Z,99.46
2017-09-20T02:19:25.914Z,99.46
2017-09-20T02:20:25.899Z,99.55
2017-09-20T02:21:25.869Z,99.46
2017-09-20T02:22:25.846Z,99.46
2017-09-20T02:23:25.825Z,99.46
2017-09-20T02:24:25.802Z,99.37
2017-09-20T02:25:25.774Z,99.55
2017-09-20T02:26:25.751Z,99.18
2017-09-20T02:27:25.733Z,99.37
2017-09-20T02:28:25.704Z,99.46
2017-09-20T02:29:25.688Z,99.55
2017-09-20T02:30:25.658Z,99.46
2017-09-20T02:31:25.644Z,99.46
2017-09-20T02:32:25.621Z,99.18
2017-09-20T02:33:25.602Z,99.37
2017-09-20T02:34:25.585Z,99.46
2017-09-20T02:35:25.549Z,99.18
2017-09-20T02:36:25.524Z,99.37
2017-09-20T02:37:26.282Z,99.27
2017-09-20T02:38:26.162Z,99.55
2017-09-20T02:39:25.454Z,99.27
2017-09-20T02:40:25.513Z,99.37
2017-09-20T02:41:25.409Z,99.55
2017-09-20T02:42:25.390Z,99.37
2017-09-20T02:43:25.364Z,99.27
2017-09-20T02:44:25.344Z,99.37
2017-09-20T02:45:25.318Z,99.27
2017-09-20T02:46:25.300Z,99.46
2017-09-20T02:47:24.966Z,99.55
2017-09-20T02:48:25.250Z,99.55
2017-09-20T02:49:25.231Z,99.46
2017-09-20T02:50:25.204Z,99.18
2017-09-20T02:51:25.179Z,99.37
2017-09-20T02:52:25.158Z,99.46
2017-09-20T02:53:25.138Z,99.46
2017-09-20T02:54:25.111Z,99.46
2017-09-20T02:55:25.090Z,99.55
2017-09-20T02:56:25.067Z,99.27
2017-09-20T02:57:25.051Z,99.51
2017-09-20T02:58:25.020Z,99.46
2017-09-20T02:59:24.999Z,99.22
2017-09-20T03:00:24.980Z,99.51
2017-09-20T03:01:24.957Z,99.51
2017-09-20T03:02:24.926Z,99.6
2017-09-20T03:03:24.906Z,99.13
2017-09-20T03:04:24.883Z,98.85
2017-09-20T03:05:24.858Z,98.89
2017-09-20T03:06:24.836Z,99.55
2017-09-20T03:07:24.813Z,99.51
2017-09-20T03:08:24.794Z,99.51
2017-09-20T03:09:24.765Z,99.41
2017-09-20T03:10:24.744Z,99.51
2017-09-20T03:11:24.730Z,99.13
2017-09-20T03:12:24.703Z,98.99
2017-09-20T03:13:24.706Z,99.04
2017-09-20T03:14:24.658Z,99.41
2017-09-20T03:15:24.634Z,98.94
2017-09-20T03:16:24.645Z,98.94
2017-09-20T03:17:24.586Z,98.94
2017-09-20T03:18:24.254Z,99.32
2017-09-20T03:19:24.537Z,99.41
2017-09-20T03:20:24.519Z,98.89
2017-09-20T03:21:24.496Z,98.85
2017-09-20T03:22:24.471Z,98.94
2017-09-20T03:23:24.141Z,98.79
2017-09-20T03:24:24.427Z,98.85
2017-09-20T03:25:24.455Z,98.85
2017-09-20T03:26:24.382Z,99.32
2017-09-20T03:27:24.357Z,98.85
2017-09-20T03:28:24.342Z,99.32
2017-09-20T03:29:24.313Z,99.32
2017-09-20T03:30:24.304Z,99.04
2017-09-20T03:31:24.273Z,99.22
2017-09-20T03:32:24.245Z,99.22
2017-09-20T03:33:24.218Z,99.32
2017-09-20T03:34:24.200Z,99.22
2017-09-20T03:35:24.178Z,99.6
2017-09-20T03:36:24.150Z,99.04
2017-09-20T03:37:24.131Z,99.13
2017-09-20T03:38:24.105Z,99.04
2017-09-20T03:39:24.083Z,99.13
2017-09-20T03:40:24.065Z,99.22
2017-09-20T03:41:24.036Z,99.22
2017-09-20T03:42:24.021Z,99.41
2017-09-20T03:43:23.992Z,99.13
2017-09-20T03:44:23.975Z,99.41
2017-09-20T03:45:23.977Z,99.13
2017-09-20T03:46:23.921Z,99.04
2017-09-20T03:47:23.897Z,99.04
2017-09-20T03:48:23.877Z,99.22
2017-09-20T03:49:23.544Z,99.22
2017-09-20T03:50:23.833Z,98.85
2017-09-20T03:51:23.807Z,99.51
2017-09-20T03:52:23.793Z,99.8
2017-09-20T03:53:23.759Z,99.7
2017-09-20T03:54:23.744Z,98.85
2017-09-20T03:55:23.717Z,98.85
2017-09-20T03:56:23.692Z,98.94
2017-09-20T03:57:23.669Z,98.85
2017-09-20T03:58:23.643Z,98.75
2017-09-20T03:59:23.628Z,98.85
2017-09-20T04:00:23.601Z,99.22
2017-09-20T04:01:23.598Z,99.22
2017-09-20T04:02:23.562Z,99.22
2017-09-20T04:03:23.539Z,98.94
2017-09-20T04:04:23.514Z,99.04
2017-09-20T04:05:23.492Z,99.22
2017-09-20T04:06:23.476Z,99.04
2017-09-20T04:07:23.444Z,98.85
2017-09-20T04:08:23.424Z,98.46
2017-09-20T04:09:23.398Z,99.22
2017-09-20T04:10:23.373Z,99.22
2017-09-20T04:11:23.350Z,98.85
2017-09-20T04:12:23.331Z,98.75
2017-09-20T04:13:23.304Z,99.04
2017-09-20T04:14:23.284Z,99.04
2017-09-20T04:15:23.263Z,98.85
2017-09-20T04:16:23.236Z,98.94
2017-09-20T04:17:23.218Z,98.94
2017-09-20T04:18:22.883Z,98.94
2017-09-20T04:19:23.170Z,98.75
2017-09-20T04:20:23.155Z,98.36
2017-09-20T04:21:23.135Z,99.22
2017-09-20T04:22:23.098Z,98.85
2017-09-20T04:23:23.083Z,98.75
2017-09-20T04:24:23.060Z,98.75
2017-09-20T04:25:23.030Z,98.85
2017-09-20T04:26:23.010Z,98.94
2017-09-20T04:27:22.986Z,98.65
2017-09-20T04:28:22.967Z,99.04
2017-09-20T04:29:22.942Z,98.75
2017-09-20T04:30:22.924Z,99.13
2017-09-20T04:31:22.896Z,98.36
2017-09-20T04:32:22.870Z,99.13
2017-09-20T04:33:22.850Z,98.36
2017-09-20T04:34:22.829Z,99.04
2017-09-20T04:35:22.802Z,99.04
2017-09-20T04:36:22.787Z,99.04
2017-09-20T04:37:22.758Z,98.65
2017-09-20T04:38:22.733Z,99.13
2017-09-20T04:39:22.716Z,99.04
2017-09-20T04:40:22.693Z,99.04
2017-09-20T04:41:22.665Z,99.13
2017-09-20T04:42:22.650Z,99.04
2017-09-20T04:43:22.627Z,98.85
2017-09-20T04:44:22.599Z,99.04
2017-09-20T04:45:22.576Z,98.85
2017-09-20T04:46:22.561Z,98.65
2017-09-20T04:47:22.545Z,98.85
2017-09-20T04:48:22.516Z,98.65
2017-09-20T04:49:22.487Z,98.65
2017-09-20T04:50:22.466Z,98.85
2017-09-20T04:51:22.439Z,98.56
2017-09-20T04:52:22.422Z,98.75
2017-09-20T04:53:22.392Z,98.61
2017-09-20T04:54:22.371Z,98.65
2017-09-20T04:55:22.350Z,98.75
2017-09-20T04:56:22.327Z,98.85
2017-09-20T04:57:22.300Z,98.94
2017-09-20T04:58:22.281Z,98.65
2017-09-20T04:59:22.261Z,98.94
2017-09-20T05:00:22.234Z,98.94
2017-09-20T05:01:22.217Z,98.94
2017-09-20T05:02:22.186Z,98.65
2017-09-20T05:03:22.162Z,98.65
2017-09-20T05:04:22.192Z,98.94
2017-09-20T05:05:22.119Z,98.75
2017-09-20T05:06:22.096Z,98.65
2017-09-20T05:07:22.076Z,98.75
2017-09-20T05:08:22.055Z,98.75
2017-09-20T05:09:22.075Z,98.75
2017-09-20T05:10:22.000Z,98.56
2017-09-20T05:11:21.984Z,98.85
2017-09-20T05:12:21.966Z,98.56
2017-09-20T05:13:21.936Z,98.75
2017-09-20T05:14:21.921Z,98.56
2017-09-20T05:15:21.891Z,98.75
2017-09-20T05:16:21.868Z,98.75
2017-09-20T05:17:21.846Z,98.85
2017-09-20T05:18:21.830Z,98.46
2017-09-20T05:19:21.803Z,99.04
2017-09-20T05:20:21.782Z,98.85
2017-09-20T05:21:21.762Z,98.85
2017-09-20T05:22:21.773Z,98.94
2017-09-20T05:23:21.748Z,98.75
2017-09-20T05:24:21.683Z,98.94
2017-09-20T05:25:21.667Z,98.75
2017-09-20T05:26:21.641Z,98.75
2017-09-20T05:27:21.633Z,98.85
2017-09-20T05:28:21.593Z,98.85
2017-09-20T05:29:21.571Z,98.85
2017-09-20T05:30:21.553Z,98.85
2017-09-20T05:31:21.533Z,98.65
2017-09-20T05:32:21.507Z,98.85
2017-09-20T05:33:21.484Z,98.85
2017-09-20T05:34:21.459Z,98.85
2017-09-20T05:35:21.126Z,98.75
2017-09-20T05:36:21.414Z,98.85
2017-09-20T05:37:21.400Z,98.85
2017-09-20T05:38:21.376Z,98.75
2017-09-20T05:39:21.342Z,98.85
2017-09-20T05:40:21.317Z,98.85
2017-09-20T05:41:21.305Z,98.85
2017-09-20T05:42:21.273Z,98.85
2017-09-20T05:43:21.252Z,98.75
2017-09-20T05:44:21.232Z,98.46
2017-09-20T05:45:21.209Z,98.85
2017-09-20T05:46:21.196Z,98.56
2017-09-20T05:47:21.159Z,98.46
2017-09-20T05:48:21.139Z,98.36
2017-09-20T05:49:21.116Z,98.75
2017-09-20T05:50:21.149Z,98.46
2017-09-20T05:51:21.074Z,98.65
2017-09-20T05:52:21.049Z,98.56
2017-09-20T05:53:21.025Z,98.65
2017-09-20T05:54:21.006Z,98.65
2017-09-20T05:55:20.985Z,98.65
2017-09-20T05:56:20.960Z,98.65
2017-09-20T05:57:20.938Z,98.75
2017-09-20T05:58:20.913Z,98.65
2017-09-20T05:59:20.892Z,98.65
2017-09-20T06:00:20.873Z,98.94
2017-09-20T06:01:20.844Z,98.85
2017-09-20T06:02:20.830Z,98.85
2017-09-20T06:03:20.803Z,98.75
2017-09-20T06:04:20.776Z,98.75
2017-09-20T06:05:20.753Z,98.8
2017-09-20T06:06:20.732Z,98.75
2017-09-20T06:07:20.712Z,98.18
2017-09-20T06:08:20.685Z,98.36
2017-09-20T06:09:20.668Z,98.7
2017-09-20T06:10:20.642Z,98.56
2017-09-20T06:11:20.615Z,98.65
2017-09-20T06:12:20.607Z,98.56
2017-09-20T06:13:20.575Z,98.85
2017-09-20T06:14:20.549Z,98.9
2017-09-20T06:15:20.530Z,98.85
2017-09-20T06:16:20.515Z,98.9
2017-09-20T06:17:20.481Z,98.7
2017-09-20T06:18:20.457Z,98.61
2017-09-20T06:19:20.440Z,98.7
2017-09-20T06:20:20.417Z,98.7
2017-09-20T06:21:20.390Z,98.7
2017-09-20T06:22:20.062Z,98.61
2017-09-20T06:23:20.347Z,98.61
2017-09-20T06:24:20.325Z,98.7
2017-09-20T06:25:20.299Z,99.08
2017-09-20T06:26:20.281Z,98.99
2017-09-20T06:27:20.259Z,98.7
2017-09-20T06:28:20.228Z,99.08
2017-09-20T06:29:20.209Z,98.7
2017-09-20T06:30:20.186Z,98.99
2017-09-20T06:31:20.169Z,99.08
2017-09-20T06:32:20.145Z,98.8
2017-09-20T06:33:20.119Z,98.42
2017-09-20T06:34:20.098Z,98.8
2017-09-20T06:35:20.079Z,98.7
2017-09-20T06:36:20.057Z,98.22
2017-09-20T06:37:20.030Z,98.22
2017-09-20T06:38:20.005Z,98.13
2017-09-20T06:39:19.676Z,98.32
2017-09-20T06:40:19.960Z,98.22
2017-09-20T06:41:19.937Z,98.13
2017-09-20T06:42:19.916Z,98.22
2017-09-20T06:43:19.894Z,98.13
2017-09-20T06:44:19.870Z,98.13
2017-09-20T06:45:19.902Z,98.42
2017-09-20T06:46:19.821Z,98.13
2017-09-20T06:47:19.802Z,98.42
2017-09-20T06:48:19.779Z,98.03
2017-09-20T06:49:19.784Z,98.61
2017-09-20T06:50:19.736Z,98.61
2017-09-20T06:51:19.713Z,98.13
2017-09-20T06:52:19.691Z,98.51
2017-09-20T06:53:19.673Z,98.42
2017-09-20T06:54:19.653Z,98.56
2017-09-20T06:55:19.626Z,98.51
2017-09-20T06:56:19.599Z,98.37
2017-09-20T06:57:19.584Z,97.94
2017-09-20T06:58:19.556Z,98.13
2017-09-20T06:59:19.225Z,98.08
2017-09-20T07:00:19.215Z,98.18
2017-09-20T07:01:19.491Z,98.18
2017-09-20T07:02:19.469Z,97.99
2017-09-20T07:03:19.449Z,97.99
2017-09-20T07:04:19.425Z,97.71
2017-09-20T07:05:19.400Z,97.71
2017-09-20T07:06:19.374Z,97.71
2017-09-20T07:07:19.355Z,97.42
2017-09-20T07:08:19.329Z,97.61
2017-09-20T07:09:19.315Z,97.51
2017-09-20T07:10:19.288Z,97.61
2017-09-20T07:11:19.267Z,97.8
2017-09-20T07:12:19.243Z,97.71
2017-09-20T07:13:19.226Z,97.71
2017-09-20T07:14:19.203Z,97.8
2017-09-20T07:15:18.872Z,97.51
2017-09-20T07:16:19.156Z,97.71
2017-09-20T07:17:18.821Z,97.89
2017-09-20T07:18:19.113Z,97.89
2017-09-20T07:19:19.090Z,97.71
2017-09-20T07:20:19.065Z,97.89
2017-09-20T07:21:19.042Z,97.89
2017-09-20T07:22:19.021Z,97.71
2017-09-20T07:23:19.001Z,97.61
2017-09-20T07:24:18.979Z,97.71
2017-09-20T07:25:18.956Z,97.71
2017-09-20T07:26:18.935Z,97.61
2017-09-20T07:27:18.915Z,97.61
2017-09-20T07:28:18.890Z,97.71
2017-09-20T07:29:18.870Z,97.8
2017-09-20T07:30:18.850Z,97.51
2017-09-20T07:31:18.520Z,97.71
2017-09-20T07:32:18.801Z,97.8
2017-09-20T07:33:18.781Z,97.42
2017-09-20T07:34:18.761Z,97.22
2017-09-20T07:35:18.734Z,97.22
2017-09-20T07:36:18.710Z,97.42
2017-09-20T07:37:18.691Z,97.42
2017-09-20T07:38:18.680Z,97.71
2017-09-20T07:39:18.654Z,97.71
2017-09-20T07:40:18.636Z,97.42
2017-09-20T07:41:18.598Z,97.42
2017-09-20T07:42:18.577Z,97.42
2017-09-20T07:43:18.561Z,97.51
2017-09-20T07:44:18.536Z,97.42
2017-09-20T07:45:18.523Z,97.61
2017-09-20T07:46:18.496Z,97.42
2017-09-20T07:47:18.467Z,97.42
2017-09-20T07:48:18.445Z,97.8
2017-09-20T07:49:18.432Z,97.8
2017-09-20T07:50:18.400Z,97.8
2017-09-20T07:51:18.383Z,97.8
2017-09-20T07:52:18.357Z,97.61
2017-09-20T07:53:18.335Z,97.42
2017-09-20T07:54:18.314Z,97.61
2017-09-20T07:55:18.295Z,97.85
2017-09-20T07:56:18.266Z,97.85
2017-09-20T07:57:18.255Z,97.37
2017-09-20T07:58:18.222Z,97.94
2017-09-20T07:59:17.895Z,97.18
2017-09-20T08:00:18.177Z,96.7
2017-09-20T08:01:18.152Z,97.75
2017-09-20T08:02:18.135Z,97.18
2017-09-20T08:03:18.112Z,97.08
2017-09-20T08:04:17.782Z,97.18
2017-09-20T08:05:18.071Z,97.75
2017-09-20T08:06:18.045Z,96.89
2017-09-20T08:07:17.716Z,97.08
2017-09-20T08:08:18.001Z,96.89
2017-09-20T08:09:17.712Z,96.89
2017-09-20T08:10:17.657Z,96.98
2017-09-20T08:11:17.952Z,97.18
2017-09-20T08:12:17.910Z,97.18
2017-09-20T08:13:17.891Z,97.47
2017-09-20T08:14:17.873Z,97.47
2017-09-20T08:15:17.850Z,96.61
2017-09-20T08:16:17.821Z,97.75
2017-09-20T08:17:17.798Z,97.85
2017-09-20T08:18:17.780Z,97.85
2017-09-20T08:19:17.759Z,97.66
2017-09-20T08:20:17.736Z,97.66
2017-09-20T08:21:17.710Z,97.75
2017-09-20T08:22:17.696Z,97.85
2017-09-20T08:23:17.669Z,97.37
2017-09-20T08:24:17.646Z,97.85
2017-09-20T08:25:17.625Z,97.56
2017-09-20T08:26:17.601Z,97.75
2017-09-20T08:27:17.580Z,97.75
2017-09-20T08:28:17.558Z,97.66
2017-09-20T08:29:17.538Z,97.66
2017-09-20T08:30:17.513Z,97.56
2017-09-20T08:31:17.487Z,97.66
2017-09-20T08:32:17.469Z,97.66
2017-09-20T08:33:17.447Z,97.75
2017-09-20T08:34:17.423Z,97.75
2017-09-20T08:35:17.401Z,97.75
2017-09-20T08:36:17.379Z,97.47
2017-09-20T08:37:17.358Z,97.47
2017-09-20T08:38:17.339Z,97.08
2017-09-20T08:39:17.320Z,96.94
2017-09-20T08:40:17.292Z,96.94
2017-09-20T08:41:17.275Z,96.7
2017-09-20T08:42:17.248Z,96.84
2017-09-20T08:43:17.237Z,96.84
2017-09-20T08:44:17.204Z,97.03
2017-09-20T08:45:17.182Z,97.03
2017-09-20T08:46:17.158Z,96.84
2017-09-20T08:47:17.146Z,97.03
2017-09-20T08:48:17.129Z,97.03
2017-09-20T08:49:17.093Z,97.13
2017-09-20T08:50:17.074Z,96.84
2017-09-20T08:51:17.051Z,96.99
2017-09-20T08:52:17.027Z,96.84
2017-09-20T08:53:17.009Z,96.8
2017-09-20T08:54:16.988Z,96.7
2017-09-20T08:55:16.970Z,96.94
2017-09-20T08:56:16.951Z,96.94
2017-09-20T08:57:16.919Z,96.99
2017-09-20T08:58:16.906Z,96.66
2017-09-20T08:59:16.880Z,96.94
2017-09-20T09:00:16.857Z,96.89
2017-09-20T09:01:16.842Z,96.8
2017-09-20T09:02:16.812Z,96.51
2017-09-20T09:03:16.805Z,96.89
2017-09-20T09:04:16.769Z,96.8
2017-09-20T09:05:16.750Z,96.61
2017-09-20T09:06:16.724Z,96.8
2017-09-20T09:07:16.742Z,96.7
2017-09-20T09:08:16.684Z,96.13
2017-09-20T09:09:16.663Z,96.89
2017-09-20T09:10:16.640Z,96.22
2017-09-20T09:11:16.623Z,95.94
2017-09-20T09:12:16.607Z,96.47
2017-09-20T09:13:16.578Z,96.56
2017-09-20T09:14:16.556Z,96.27
2017-09-20T09:15:16.534Z,96.27
2017-09-20T09:16:16.518Z,96.18
2017-09-20T09:17:16.540Z,96.37
2017-09-20T09:18:16.468Z,96.47
2017-09-20T09:19:16.443Z,96.37
2017-09-20T09:20:16.482Z,96.61
2017-09-20T09:21:16.406Z,95.94
2017-09-20T09:22:16.381Z,96.42
2017-09-20T09:23:16.367Z,96.03
2017-09-20T09:24:16.353Z,96.22
2017-09-20T09:25:16.326Z,96.61
2017-09-20T09:26:16.302Z,96.51
2017-09-20T09:27:15.971Z,96.51
2017-09-20T09:28:16.258Z,95.84
2017-09-20T09:29:16.242Z,95.94
2017-09-20T09:30:16.225Z,95.84
2017-09-20T09:31:15.896Z,96.13
2017-09-20T09:32:16.183Z,95.84
2017-09-20T09:33:16.156Z,96.18
2017-09-20T09:34:16.126Z,95.89
2017-09-20T09:35:16.111Z,95.7
2017-09-20T09:36:16.095Z,95.7
2017-09-20T09:37:16.071Z,95.61
2017-09-20T09:38:16.051Z,95.89
2017-09-20T09:39:16.033Z,95.79
2017-09-20T09:40:16.018Z,95.7
2017-09-20T09:41:15.985Z,95.7
2017-09-20T09:42:15.657Z,95.7
2017-09-20T09:43:15.946Z,96.18
2017-09-20T09:44:15.614Z,95.98
2017-09-20T09:45:15.908Z,96.18
2017-09-20T09:46:15.887Z,95.98
2017-09-20T09:47:15.861Z,95.98
2017-09-20T09:48:15.846Z,96.08
2017-09-20T09:49:15.828Z,95.51
2017-09-20T09:50:15.494Z,95.51
2017-09-20T09:51:15.782Z,95.41
2017-09-20T09:52:15.757Z,95.61
2017-09-20T09:53:15.737Z,95.75
2017-09-20T09:54:15.718Z,95.27
2017-09-20T09:55:15.703Z,95.36
2017-09-20T09:56:15.730Z,95.56
2017-09-20T09:57:15.658Z,95.27
2017-09-20T09:58:15.635Z,95.56
2017-09-20T09:59:15.624Z,95.17
2017-09-20T10:00:15.601Z,94.98
2017-09-20T10:01:15.577Z,95.46
2017-09-20T10:02:15.556Z,95.84
2017-09-20T10:03:15.532Z,95.65
2017-09-20T10:04:15.521Z,95.84
2017-09-20T10:05:15.498Z,94.93
2017-09-20T10:06:15.173Z,95.12
2017-09-20T10:07:15.461Z,94.98
2017-09-20T10:08:15.440Z,95.17
2017-09-20T10:09:15.418Z,95.17
2017-09-20T10:10:15.398Z,95.17
2017-09-20T10:11:15.373Z,95.27
2017-09-20T10:12:15.363Z,95.17
2017-09-20T10:13:15.331Z,95.17
2017-09-20T10:14:15.316Z,95.22
2017-09-20T10:15:15.289Z,95.27
2017-09-20T10:16:15.320Z,94.89
2017-09-20T10:17:15.249Z,94.89
2017-09-20T10:18:15.233Z,94.93
2017-09-20T10:19:15.215Z,94.93
2017-09-20T10:20:15.186Z,94.45
2017-09-20T10:21:15.170Z,94.84
2017-09-20T10:22:15.152Z,94.84
2017-09-20T10:23:15.130Z,94.89
2017-09-20T10:24:15.112Z,94.12
2017-09-20T10:25:15.090Z,94.4
2017-09-20T10:26:15.069Z,94.4
2017-09-20T10:27:14.754Z,94.02
2017-09-20T10:28:15.029Z,94.17
2017-09-20T10:29:15.011Z,94.02
2017-09-20T10:30:14.993Z,93.78
2017-09-20T10:31:14.971Z,93.88
2017-09-20T10:32:14.957Z,94.07
2017-09-20T10:33:14.933Z,93.68
2017-09-20T10:34:14.911Z,93.78
2017-09-20T10:35:14.891Z,93.49
2017-09-20T10:36:14.869Z,93.59
2017-09-20T10:37:14.849Z,93.49
2017-09-20T10:38:14.835Z,92.72
2017-09-20T10:39:14.820Z,93.21
2017-09-20T10:40:14.848Z,93.01
2017-09-20T10:41:14.774Z,92.72
2017-09-20T10:42:14.761Z,93.01
2017-09-20T10:43:14.742Z,92.91
2017-09-20T10:44:14.721Z,92.91
2017-09-20T10:45:14.694Z,93.3
2017-09-20T10:46:14.685Z,92.29
2017-09-20T10:47:14.656Z,92.39
2017-09-20T10:48:14.640Z,92
2017-09-20T10:49:14.625Z,92
2017-09-20T10:50:14.602Z,92
2017-09-20T10:51:14.272Z,91.91
2017-09-20T10:52:14.563Z,91.81
2017-09-20T10:53:14.540Z,91.81
2017-09-20T10:54:14.526Z,91.42
2017-09-20T10:55:14.513Z,91.52
2017-09-20T10:56:14.486Z,91.33
2017-09-20T10:57:14.489Z,90.99
2017-09-20T10:58:14.448Z,91.28
2017-09-20T10:59:14.425Z,90.7
2017-09-20T11:00:14.408Z,90.99
2017-09-20T11:01:14.389Z,90.8
2017-09-20T11:02:14.375Z,90.22
2017-09-20T11:03:14.357Z,90.99
2017-09-20T11:04:14.334Z,90.61
2017-09-20T11:05:14.314Z,90.7
2017-09-20T11:06:14.297Z,90.13
2017-09-20T11:07:14.287Z,90.03
2017-09-20T11:08:14.259Z,89.98
2017-09-20T11:09:14.240Z,89.69
2017-09-20T11:10:13.912Z,89.6
2017-09-20T11:11:14.199Z,89.6
2017-09-20T11:12:14.235Z,89.31
2017-09-20T11:13:14.160Z,89.4
2017-09-20T11:14:14.149Z,89.12
2017-09-20T11:15:14.132Z,88.93
2017-09-20T11:16:14.105Z,89.12
2017-09-20T11:17:14.087Z,89.22
2017-09-20T11:18:14.071Z,88.64
2017-09-20T11:19:14.052Z,88.54
2017-09-20T11:20:14.031Z,88.49
2017-09-20T11:21:14.011Z,88.49
2017-09-20T11:22:13.999Z,88.49
2017-09-20T11:23:13.975Z,88.69
2017-09-20T11:24:13.968Z,88.49
2017-09-20T11:25:13.937Z,88.74
2017-09-20T11:26:13.927Z,88.49
2017-09-20T11:27:13.901Z,88.79
2017-09-20T11:28:13.884Z,88.59
2017-09-20T11:29:13.863Z,88.55
2017-09-20T11:30:13.842Z,87.92
2017-09-20T11:31:13.821Z,88.74
2017-09-20T11:32:13.808Z,88.45
2017-09-20T11:33:13.787Z,88.55
2017-09-20T11:34:13.765Z,88.65
2017-09-20T11:35:13.440Z,88.55
2017-09-20T11:36:13.725Z,88.35
2017-09-20T11:37:13.705Z,88.45
2017-09-20T11:38:13.736Z,88.35
2017-09-20T11:39:13.670Z,88.45
2017-09-20T11:40:13.643Z,88.35
2017-09-20T11:41:13.629Z,88.45
2017-09-20T11:42:13.610Z,88.45
2017-09-20T11:43:13.592Z,88.74
2017-09-20T11:44:13.569Z,88.55
2017-09-20T11:45:13.549Z,88.35
2017-09-20T11:46:13.224Z,88.51
2017-09-20T11:47:13.515Z,88.26
2017-09-20T11:48:13.492Z,88.55
2017-09-20T11:49:13.467Z,88.41
2017-09-20T11:50:13.456Z,87.74
2017-09-20T11:51:13.430Z,88.02
2017-09-20T11:52:13.411Z,87.64
2017-09-20T11:53:13.392Z,87.64
2017-09-20T11:54:13.377Z,87.64
2017-09-20T11:55:13.406Z,87.84
2017-09-20T11:56:13.334Z,87.16
2017-09-20T11:57:13.317Z,87.26
2017-09-20T11:58:13.295Z,87.07
2017-09-20T11:59:13.277Z,87.45
2017-09-20T12:00:13.255Z,86.78
2017-09-20T12:01:13.234Z,87.16
2017-09-20T12:02:13.214Z,86.82
2017-09-20T12:03:13.201Z,86.88
2017-09-20T12:04:13.179Z,87.16
2017-09-20T12:05:13.155Z,87.11
2017-09-20T12:06:13.136Z,87.3
2017-09-20T12:07:13.113Z,87.01
2017-09-20T12:08:13.095Z,87.45
2017-09-20T12:09:13.074Z,86.88
2017-09-20T12:10:13.056Z,87.11
2017-09-20T12:11:13.036Z,87.26
2017-09-20T12:12:13.012Z,86.97
2017-09-20T12:13:13.001Z,87.45
2017-09-20T12:14:12.981Z,87.26
2017-09-20T12:15:12.958Z,87.16
2017-09-20T12:16:12.939Z,87.21
2017-09-20T12:17:12.914Z,87.12
2017-09-20T12:18:12.897Z,87.41
2017-09-20T12:19:12.872Z,87.88
2017-09-20T12:20:12.852Z,87.6
2017-09-20T12:21:12.831Z,87.7
2017-09-20T12:22:12.811Z,87.94
2017-09-20T12:23:12.793Z,88.13
2017-09-20T12:24:12.774Z,88.51
2017-09-20T12:25:12.754Z,88.23
2017-09-20T12:26:12.737Z,88.42
2017-09-20T12:27:12.716Z,88.61
2017-09-20T12:28:12.692Z,87.74
2017-09-20T12:29:12.373Z,88.7
2017-09-20T12:30:12.652Z,89.76
2017-09-20T12:31:12.633Z,90.58
2017-09-20T12:32:12.662Z,90.39
2017-09-20T12:33:12.585Z,90.82
2017-09-20T12:34:12.568Z,91.97
2017-09-20T12:35:12.562Z,91.77
2017-09-20T12:36:12.526Z,91.87
2017-09-20T12:37:12.504Z,92.11
2017-09-20T12:38:12.486Z,92.78
2017-09-20T12:39:12.462Z,92.69
2017-09-20T12:40:12.444Z,93.07
2017-09-20T12:41:12.415Z,92.97
2017-09-20T12:42:12.392Z,93.07
2017-09-20T12:43:12.376Z,93.26
2017-09-20T12:44:12.359Z,93.55
2017-09-20T12:45:12.336Z,93.45
2017-09-20T12:46:12.313Z,93.45
2017-09-20T12:47:12.304Z,93.07
2017-09-20T12:48:12.269Z,93.35
2017-09-20T12:49:12.256Z,93.07
2017-09-20T12:50:12.221Z,93.45
2017-09-20T12:51:12.204Z,93.64
2017-09-20T12:52:12.182Z,93.55
2017-09-20T12:53:12.162Z,93.64
2017-09-20T12:54:12.140Z,93.55